Time;durP1;ratioP1;P1;durP2;ratioP2;P2;SDS_P1;SDS_P2;PMS_P1;PMS_P2;Temp;Humidity;BMP_temperature;BMP_pressure;BME280_temperature;BME280_humidity;BME280_pressure;Samples;Min_cycle;Max_cycle;Signal;HPM_P1;HPM_P2
2021/04/11 00:02:24;;;;;;;6.15;3.10;;;;;;;10.40;78.78;98658.69;4951499;28;20039;-69
2021/04/11 00:04:51;;;;;;;3.75;2.72;;;;;;;10.44;78.56;98646.16;4951083;28;20110;-68
2021/04/11 00:07:17;;;;;;;5.45;3.45;;;;;;;10.39;79.03;98651.75;4951542;28;20415;-68
2021/04/11 00:09:42;;;;;;;5.05;2.83;;;;;;;10.41;78.78;98647.22;4951184;28;20376;-69
2021/04/11 00:12:08;;;;;;;3.83;3.08;;;;;;;10.39;78.79;98662.28;4951227;28;20507;-67
2021/04/11 00:14:33;;;;;;;3.63;2.63;;;;;;;10.40;79.20;98649.94;4950927;28;20126;-68
2021/04/11 00:16:59;;;;;;;3.20;2.40;;;;;;;10.41;78.83;98649.84;4951101;28;20106;-69
2021/04/11 00:19:24;;;;;;;5.63;2.67;;;;;;;10.41;78.90;98646.34;4951419;28;20039;-69
2021/04/11 00:21:49;;;;;;;4.07;2.92;;;;;;;10.37;79.00;98643.09;4950969;28;20036;-69
2021/04/11 00:24:15;;;;;;;3.80;2.78;;;;;;;10.37;78.85;98650.16;4951394;28;20043;-67
2021/04/11 00:26:41;;;;;;;3.55;2.63;;;;;;;10.40;78.48;98652.56;4950469;28;20031;-68
2021/04/11 00:29:06;;;;;;;4.10;2.75;;;;;;;10.38;78.96;98655.31;4951030;28;20035;-68
2021/04/11 00:31:32;;;;;;;4.07;2.92;;;;;;;10.37;78.59;98652.78;4950800;28;20037;-68
2021/04/11 00:33:57;;;;;;;4.28;2.55;;;;;;;10.36;78.90;98646.69;4951016;28;20027;-68
2021/04/11 00:36:23;;;;;;;4.25;2.58;;;;;;;10.39;78.41;98649.09;4950754;28;20047;-68
2021/04/11 00:38:48;;;;;;;4.25;3.28;;;;;;;10.40;78.76;98642.88;4951348;28;20046;-67
2021/04/11 00:41:31;;;;;;;3.80;2.30;;;;;;;10.39;78.73;98635.09;4954616;28;20039;-67
2021/04/11 00:43:57;;;;;;;2.38;1.83;;;;;;;10.40;78.65;98631.50;4955408;28;20422;-67
2021/04/11 00:46:35;;;;;;;3.47;2.65;;;;;;;10.43;78.34;98639.19;4954997;28;20114;-67
2021/04/11 00:49:01;;;;;;;4.47;2.13;;;;;;;10.43;78.05;98628.66;4954776;28;20590;-68
2021/04/11 00:51:28;;;;;;;2.72;2.00;;;;;;;10.45;78.29;98638.13;4954459;28;20031;-68
2021/04/11 00:54:05;;;;;;;3.03;2.20;;;;;;;10.43;78.26;98633.91;4954021;28;20039;-68
2021/04/11 00:56:33;;;;;;;2.70;2.15;;;;;;;10.43;78.44;98631.28;4954083;28;20035;-68
2021/04/11 00:58:59;;;;;;;3.45;2.40;;;;;;;10.43;78.42;98637.41;4951225;28;20064;-67
2021/04/11 01:01:25;;;;;;;2.47;2.10;;;;;;;10.45;78.75;98639.94;4936573;28;20082;-68
2021/04/11 01:03:52;;;;;;;4.50;2.22;;;;;;;10.47;78.25;98636.25;4953900;28;20043;-68
2021/04/11 01:06:22;;;;;;;3.38;2.60;;;;;;;10.49;78.09;98623.81;4954010;28;20027;-69
2021/04/11 01:08:49;;;;;;;5.28;4.07;;;;;;;10.46;78.02;98625.81;4937075;29;20035;-68
2021/04/11 01:11:20;;;;;;;5.07;3.20;;;;;;;10.43;78.54;98626.84;4954490;28;20455;-68
2021/04/11 01:13:58;;;;;;;6.40;5.03;;;;;;;10.35;78.62;98639.72;4954495;28;20113;-68
2021/04/11 01:16:24;;;;;;;8.20;6.80;;;;;;;10.25;79.08;98635.97;4953555;28;20043;-68
2021/04/11 01:18:50;;;;;;;11.55;9.75;;;;;;;10.03;78.39;98640.00;4954317;28;20047;-68
2021/04/11 01:21:34;;;;;;;19.73;12.10;;;;;;;9.82;78.77;98634.38;4937002;29;20400;-68
2021/04/11 01:24:02;;;;;;;16.52;14.43;;;;;;;9.63;79.13;98641.75;4953840;28;20054;-69
2021/04/11 01:26:30;;;;;;;15.68;13.38;;;;;;;9.50;79.89;98639.06;4954700;28;20039;-68
2021/04/11 01:28:55;;;;;;;16.65;14.10;;;;;;;9.31;80.07;98647.25;4956298;28;20035;-69
2021/04/11 01:31:21;;;;;;;17.27;14.77;;;;;;;9.21;80.30;98648.78;4957171;28;20099;-68
2021/04/11 01:33:51;;;;;;;19.98;16.38;;;;;;;9.08;79.74;98651.31;4951376;28;20070;-69
2021/04/11 01:36:20;;;;;;;15.95;13.45;;;;;;;9.01;80.37;98650.00;4953594;28;20059;-68
2021/04/11 01:38:47;;;;;;;17.73;14.73;;;;;;;8.93;81.08;98654.84;4953511;28;20491;-69
2021/04/11 01:41:29;;;;;;;24.27;19.63;;;;;;;8.88;80.77;98655.13;4953536;28;20035;-69
2021/04/11 01:43:55;;;;;;;19.08;16.00;;;;;;;8.80;81.48;98660.00;4953339;28;20109;-69
2021/04/11 01:46:22;;;;;;;22.23;16.05;;;;;;;8.72;80.99;98672.78;4952719;28;20039;-69
2021/04/11 01:48:49;;;;;;;19.83;16.55;;;;;;;8.64;80.29;98678.50;4953808;28;20091;-69
2021/04/11 01:51:19;;;;;;;26.48;18.75;;;;;;;8.51;80.54;98675.72;4953132;28;20086;-69
2021/04/11 01:53:47;;;;;;;20.38;15.50;;;;;;;8.43;80.52;98677.13;4953189;28;20041;-69
2021/04/11 01:56:13;;;;;;;23.73;17.88;;;;;;;8.19;80.85;98688.06;4952938;28;20031;-68
2021/04/11 01:58:41;;;;;;;21.30;15.90;;;;;;;8.10;81.27;98693.84;4953577;28;20118;-68
2021/04/11 02:01:30;;;;;;;17.90;14.68;;;;;;;7.98;81.11;98705.03;4952855;28;20039;-69
2021/04/11 02:03:58;;;;;;;22.95;17.23;;;;;;;7.85;81.38;98697.84;4953041;28;20042;-69
2021/04/11 02:06:25;;;;;;;23.95;17.58;;;;;;;7.73;82.43;98704.63;4952736;28;20091;-69
2021/04/11 02:09:01;;;;;;;16.17;13.13;;;;;;;7.71;81.90;98700.38;4952773;28;20376;-69
2021/04/11 02:11:27;;;;;;;13.63;10.75;;;;;;;7.66;81.72;98702.41;4952631;28;20035;-69
2021/04/11 02:13:53;;;;;;;11.48;9.50;;;;;;;7.64;81.54;98706.88;4953305;28;20054;-69
2021/04/11 02:16:26;;;;;;;13.48;11.52;;;;;;;7.61;81.34;98710.53;4953187;28;20041;-69
2021/04/11 02:19:17;;;;;;;11.63;9.48;;;;;;;7.48;80.75;98701.63;4953662;28;20114;-68
2021/04/11 02:21:47;;;;;;;9.68;8.15;;;;;;;7.36;81.14;98708.38;4948772;28;20514;-68
2021/04/11 02:24:13;;;;;;;11.77;9.35;;;;;;;7.24;81.16;98701.19;4953563;28;20058;-68
2021/04/11 02:26:40;;;;;;;8.70;7.70;;;;;;;7.16;81.33;98703.34;4952632;28;20063;-68
2021/04/11 02:29:13;;;;;;;7.95;6.78;;;;;;;7.13;81.62;98703.50;4935539;28;20027;-68
2021/04/11 02:31:39;;;;;;;8.00;6.68;;;;;;;7.13;81.44;98714.00;4952835;28;20037;-69
2021/04/11 02:34:11;;;;;;;7.97;6.38;;;;;;;7.14;81.24;98719.16;4953172;28;20035;-69
2021/04/11 02:36:41;;;;;;;8.90;7.50;;;;;;;7.14;80.88;98719.16;4952884;28;20502;-68
2021/04/11 02:39:12;;;;;;;10.57;8.10;;;;;;;7.15;80.74;98725.25;4952395;28;20077;-68
2021/04/11 02:41:39;;;;;;;8.80;7.40;;;;;;;7.15;80.59;98722.63;4952382;28;20072;-68
2021/04/11 02:44:04;;;;;;;10.30;8.43;;;;;;;7.13;80.68;98727.94;4952282;28;20098;-68
2021/04/11 02:46:33;;;;;;;9.63;7.25;;;;;;;7.16;80.27;98730.41;4952204;28;20039;-67
2021/04/11 02:48:58;;;;;;;8.43;6.82;;;;;;;7.18;80.75;98725.91;4951938;28;20039;-69
2021/04/11 02:51:29;;;;;;;8.70;6.95;;;;;;;7.17;80.86;98726.00;4950707;28;20380;-69
2021/04/11 02:53:58;;;;;;;11.18;6.45;;;;;;;7.11;80.29;98719.28;4953062;28;20039;-69
2021/04/11 02:56:25;;;;;;;7.53;6.05;;;;;;;7.08;79.97;98720.31;4952265;28;20131;-68
2021/04/11 02:58:52;;;;;;;7.25;6.00;;;;;;;7.04;80.23;98716.16;4951267;28;20059;-68
2021/04/11 03:01:25;;;;;;;5.68;4.88;;;;;;;6.95;80.33;98714.03;4952029;28;20131;-68
2021/04/11 03:03:50;;;;;;;6.55;5.07;;;;;;;6.96;80.78;98718.31;4950175;28;20035;-68
2021/04/11 03:06:20;;;;;;;4.72;3.95;;;;;;;6.97;80.38;98725.28;4951431;28;20676;-68
2021/04/11 03:08:50;;;;;;;6.35;4.50;;;;;;;7.01;79.81;98723.31;4951800;28;20035;-68
2021/04/11 03:11:29;;;;;;;5.25;4.38;;;;;;;7.00;79.48;98725.09;4951641;28;20027;-69
2021/04/11 03:13:57;;;;;;;4.93;4.32;;;;;;;7.00;79.09;98732.97;4951513;28;20049;-68
2021/04/11 03:16:24;;;;;;;9.20;4.75;;;;;;;6.99;78.92;98725.19;4951449;28;20721;-69
2021/04/11 03:18:52;;;;;;;5.93;4.82;;;;;;;6.99;79.26;98730.41;4952006;28;20035;-68
2021/04/11 03:21:18;;;;;;;5.55;4.57;;;;;;;7.01;79.40;98737.28;4952075;28;20411;-68
2021/04/11 03:23:43;;;;;;;5.10;4.45;;;;;;;7.04;78.96;98738.91;4951372;28;20036;-68
2021/04/11 03:26:25;;;;;;;5.63;5.07;;;;;;;7.00;79.12;98729.50;4948312;28;20403;-68
2021/04/11 03:29:08;;;;;;;5.93;4.63;;;;;;;6.97;78.57;98732.28;4951702;28;20035;-68
2021/04/11 03:31:50;;;;;;;5.55;4.40;;;;;;;6.82;77.82;98734.75;4951555;28;20483;-68
2021/04/11 03:34:18;;;;;;;5.78;4.20;;;;;;;6.72;78.23;98741.41;4951640;28;20031;-68
2021/04/11 03:36:44;;;;;;;4.63;3.35;;;;;;;6.66;78.48;98744.31;4951073;28;20178;-68
2021/04/11 03:39:12;;;;;;;4.88;3.60;;;;;;;6.54;78.50;98750.16;4951627;28;20059;-67
2021/04/11 03:41:38;;;;;;;4.80;3.70;;;;;;;6.51;78.79;98747.69;4951501;28;20059;-68
2021/04/11 03:44:10;;;;;;;4.38;3.90;;;;;;;6.49;78.65;98747.75;4951417;28;20035;-68
2021/04/11 03:46:44;;;;;;;5.97;4.90;;;;;;;6.49;79.55;98752.16;4951065;28;20483;-68
2021/04/11 03:49:23;;;;;;;6.72;5.82;;;;;;;6.43;79.62;98748.06;4932163;29;20220;-68
2021/04/11 03:51:52;;;;;;;10.43;6.75;;;;;;;6.34;78.48;98759.00;4932265;29;20040;-68
2021/04/11 03:54:29;;;;;;;13.95;9.05;;;;;;;6.05;79.00;98761.22;4932238;29;20479;-69
2021/04/11 03:57:07;;;;;;;10.15;8.65;;;;;;;5.90;80.19;98764.53;4931472;29;20118;-67
2021/04/11 03:59:37;;;;;;;9.25;7.45;;;;;;;5.79;80.03;98771.13;4932021;29;20036;-68
2021/04/11 04:02:06;;;;;;;9.63;7.57;;;;;;;5.77;79.34;98774.72;4932289;29;20032;-68
2021/04/11 04:04:33;;;;;;;8.23;6.88;;;;;;;5.71;79.91;98782.81;4932092;29;20091;-68
2021/04/11 04:07:04;;;;;;;11.73;8.95;;;;;;;5.69;79.30;98789.91;4931527;29;20043;-67
2021/04/11 04:09:30;;;;;;;10.73;8.57;;;;;;;5.58;79.96;98795.63;4931879;29;20670;-68
2021/04/11 04:12:20;;;;;;;10.10;8.45;;;;;;;5.54;80.16;98794.91;4931822;29;20035;-68
2021/04/11 04:15:07;;;;;;;18.88;13.23;;;;;;;5.52;80.34;98795.91;4933700;29;20051;-68
2021/04/11 04:17:51;;;;;;;15.02;11.93;;;;;;;5.40;80.12;98804.28;4935692;29;20094;-68
2021/04/11 04:20:38;;;;;;;13.57;10.65;;;;;;;5.43;80.77;98806.75;4935877;29;20028;-68
2021/04/11 04:23:26;;;;;;;14.98;11.70;;;;;;;5.43;80.84;98819.81;4935754;29;20603;-68
2021/04/11 04:26:01;;;;;;;12.30;9.35;;;;;;;5.38;80.45;98826.09;4935651;29;20040;-68
2021/04/11 04:28:51;;;;;;;11.30;8.40;;;;;;;5.38;80.80;98825.25;4918482;29;20047;-67
2021/04/11 04:31:20;;;;;;;12.02;9.18;;;;;;;5.46;80.98;98827.53;4935705;29;20036;-67
2021/04/11 04:33:59;;;;;;;8.63;7.63;;;;;;;5.44;80.41;98830.22;4935914;29;20110;-69
2021/04/11 04:36:40;;;;;;;6.40;5.45;;;;;;;5.43;79.86;98836.34;4934688;29;20046;-68
2021/04/11 04:39:28;;;;;;;7.00;4.78;;;;;;;5.37;80.03;98834.84;4935622;29;20122;-68
2021/04/11 04:42:08;;;;;;;5.40;4.50;;;;;;;5.36;79.36;98843.59;4935248;29;20062;-68
2021/04/11 04:44:52;;;;;;;6.32;5.05;;;;;;;5.35;79.86;98854.97;4935261;28;20028;-68
2021/04/11 04:47:27;;;;;;;6.15;4.15;;;;;;;5.32;79.27;98846.44;4935138;29;20035;-68
2021/04/11 04:50:05;;;;;;;6.03;5.13;;;;;;;5.27;78.47;98849.25;4935313;29;20044;-68
2021/04/11 04:52:31;;;;;;;7.45;5.43;;;;;;;5.20;79.12;98855.63;4938400;28;20070;-68
2021/04/11 04:55:05;;;;;;;8.63;7.07;;;;;;;5.15;79.37;98857.59;4935534;29;20034;-68
2021/04/11 04:57:38;;;;;;;6.88;5.30;;;;;;;5.11;79.40;98858.63;4937372;29;20031;-68
2021/04/11 05:00:18;;;;;;;6.25;4.75;;;;;;;4.99;79.16;98867.81;4935542;29;20448;-68
2021/04/11 05:03:14;;;;;;;6.88;5.95;;;;;;;4.85;80.33;98884.06;4935247;29;20052;-69
2021/04/11 05:05:45;;;;;;;5.15;4.32;;;;;;;4.80;79.96;98879.94;4934532;29;20518;-68
2021/04/11 05:08:24;;;;;;;5.75;5.15;;;;;;;4.76;79.63;98870.53;4936048;29;20488;-68
2021/04/11 05:10:58;;;;;;;5.75;4.50;;;;;;;4.74;80.23;98886.25;4937306;29;20491;-68
2021/04/11 05:13:25;;;;;;;6.00;5.07;;;;;;;4.80;79.86;98892.97;4941701;29;20066;-68
2021/04/11 05:15:59;;;;;;;6.15;4.60;;;;;;;4.76;79.64;98894.03;4939134;29;20371;-68
2021/04/11 05:18:32;;;;;;;5.60;4.63;;;;;;;4.76;79.76;98894.88;4934776;29;20036;-67
2021/04/11 05:21:02;;;;;;;9.52;4.65;;;;;;;4.75;79.44;98882.75;4934902;29;20044;-67
2021/04/11 05:23:39;;;;;;;5.57;4.40;;;;;;;4.62;79.99;98886.75;4918285;29;20087;-68
2021/04/11 05:26:12;;;;;;;4.47;3.22;;;;;;;4.61;79.91;98898.94;4933323;29;20035;-68
2021/04/11 05:28:55;;;;;;;6.10;4.50;;;;;;;4.61;79.72;98906.78;4934544;29;20040;-68
2021/04/11 05:31:27;;;;;;;6.13;4.25;;;;;;;4.61;79.14;98912.00;4937309;28;20095;-69
2021/04/11 05:33:54;;;;;;;5.57;4.15;;;;;;;4.61;79.31;98917.22;4934697;29;20043;-68
2021/04/11 05:36:36;;;;;;;5.78;4.53;;;;;;;4.57;79.23;98923.47;4934138;29;20480;-68
2021/04/11 05:39:13;;;;;;;5.80;4.88;;;;;;;4.57;79.11;98918.25;4934222;28;20044;-68
2021/04/11 05:41:45;;;;;;;7.65;4.38;;;;;;;4.56;79.36;98915.72;4934332;28;20069;-68
2021/04/11 05:44:19;;;;;;;5.20;3.38;;;;;;;4.57;78.95;98907.78;4934256;29;20427;-69
2021/04/11 05:47:00;;;;;;;5.70;4.88;;;;;;;4.52;78.68;98912.34;4934221;28;20175;-69
2021/04/11 05:49:50;;;;;;;5.45;3.72;;;;;;;4.49;79.31;98912.47;4933858;29;20553;-68
2021/04/11 05:52:49;;;;;;;5.65;4.05;;;;;;;4.41;79.50;98912.78;4934135;29;20114;-68
2021/04/11 05:55:18;;;;;;;5.93;4.00;;;;;;;4.36;79.72;98921.69;4922775;29;20067;-68
2021/04/11 05:57:51;;;;;;;5.80;4.80;;;;;;;4.45;80.47;98922.16;4934263;29;20428;-68
2021/04/11 06:00:26;;;;;;;5.05;4.30;;;;;;;4.48;79.65;98932.50;4944792;28;20510;-69
2021/04/11 06:03:00;;;;;;;5.40;4.43;;;;;;;4.42;78.82;98934.50;4953359;28;20537;-69
2021/04/11 06:05:50;;;;;;;4.60;3.63;;;;;;;4.44;79.14;98943.13;4952485;28;20447;-68
2021/04/11 06:08:56;;;;;;;6.32;3.53;;;;;;;4.39;78.83;98951.13;4953368;28;20049;-68
2021/04/11 06:11:49;;;;;;;4.47;3.47;;;;;;;4.38;78.69;98962.47;4895283;28;20037;-67
2021/04/11 06:14:19;;;;;;;7.03;3.78;;;;;;;4.37;77.97;98965.13;4953890;28;20043;-70
2021/04/11 06:16:44;;;;;;;4.50;3.70;;;;;;;4.24;78.33;98977.78;4953262;28;20047;-69
2021/04/11 06:19:10;;;;;;;4.63;3.33;;;;;;;4.20;78.27;98991.84;4953728;28;20039;-68
2021/04/11 06:21:54;;;;;;;3.33;2.58;;;;;;;4.20;78.50;99000.50;4952893;28;20394;-68
2021/04/11 06:24:19;;;;;;;4.38;3.25;;;;;;;4.18;78.54;99006.69;4952952;28;20055;-68
2021/04/11 06:27:05;;;;;;;4.97;3.55;;;;;;;4.15;78.34;98999.81;4952588;28;20522;-68
2021/04/11 06:29:38;;;;;;;3.70;3.28;;;;;;;4.14;78.10;99005.13;4952680;28;20612;-68
2021/04/11 06:32:12;;;;;;;5.25;3.28;;;;;;;4.07;78.57;99005.31;4952469;28;20087;-68
2021/04/11 06:34:45;;;;;;;4.65;3.80;;;;;;;3.97;79.16;98998.72;4952668;28;20064;-67
2021/04/11 06:37:15;;;;;;;4.10;3.42;;;;;;;3.95;78.21;99016.19;4952055;28;20039;-68
2021/04/11 06:39:44;;;;;;;4.03;2.92;;;;;;;3.93;78.89;99012.75;4952168;28;20031;-68
2021/04/11 06:42:34;;;;;;;5.95;3.75;;;;;;;3.83;78.21;99016.59;4952718;28;20043;-68
2021/04/11 06:45:40;;;;;;;4.95;2.90;;;;;;;3.77;77.72;99027.25;4952436;28;20035;-68
2021/04/11 06:48:14;;;;;;;4.35;3.20;;;;;;;3.63;78.41;99020.72;4913537;28;20122;-68
2021/04/11 06:50:58;;;;;;;3.72;2.60;;;;;;;3.64;78.07;99019.84;4935391;28;20039;-68
2021/04/11 06:54:07;;;;;;;3.95;2.95;;;;;;;3.75;77.95;99016.00;4936135;29;20040;-68
2021/04/11 06:56:57;;;;;;;3.70;3.05;;;;;;;3.75;78.28;99010.81;4886678;29;20039;-68
2021/04/11 06:59:37;;;;;;;3.60;2.63;;;;;;;3.69;78.03;99005.78;4933517;29;20044;-69
2021/04/11 07:02:34;;;;;;;4.65;3.60;;;;;;;3.69;78.74;99024.03;4932622;29;20059;-68
2021/04/11 07:05:19;;;;;;;4.20;3.45;;;;;;;3.77;78.74;99027.25;4933009;29;20042;-69
2021/04/11 07:08:14;;;;;;;4.53;3.58;;;;;;;3.71;78.33;99032.66;4916089;29;20028;-68
2021/04/11 07:10:58;;;;;;;3.67;3.00;;;;;;;3.75;78.82;99035.09;4933149;29;20036;-69
2021/04/11 07:13:57;;;;;;;3.95;3.15;;;;;;;3.78;78.34;99034.16;4934070;28;20499;-69
2021/04/11 07:16:53;;;;;;;5.28;2.40;;;;;;;3.80;77.02;99027.13;4933031;29;20400;-68
2021/04/11 07:19:44;;;;;;;4.10;3.15;;;;;;;3.75;77.49;99029.91;4933010;29;20028;-68
2021/04/11 07:22:34;;;;;;;3.95;2.78;;;;;;;3.74;77.35;99028.22;4932347;29;20118;-68
2021/04/11 07:25:12;;;;;;;3.40;2.60;;;;;;;3.72;77.69;99023.94;4932529;29;20054;-68
2021/04/11 07:28:20;;;;;;;4.32;3.38;;;;;;;3.71;77.69;99030.88;4932926;29;20087;-68
2021/04/11 07:30:54;;;;;;;3.80;2.95;;;;;;;3.71;77.97;99038.72;4909181;29;20043;-68
2021/04/11 07:34:12;;;;;;;5.38;3.45;;;;;;;3.71;78.00;99035.25;4923415;29;20058;-67
2021/04/11 07:36:56;;;;;;;;;;;;;;;3.74;77.85;99049.06;4915474;29;20035;-68
2021/04/11 07:39:40;;;;;;;3.78;2.60;;;;;;;3.73;77.81;99056.91;4934901;29;19930;-68
2021/04/11 07:42:41;;;;;;;3.78;2.88;;;;;;;3.76;78.08;99075.91;4931983;29;20040;-68
2021/04/11 07:45:55;;;;;;;5.97;3.67;;;;;;;3.80;77.40;99082.72;4914935;29;20036;-68
2021/04/11 07:48:42;;;;;;;3.42;2.90;;;;;;;3.80;78.06;99081.88;4899847;29;20062;-68
2021/04/11 07:51:26;;;;;;;4.88;3.35;;;;;;;3.79;78.27;99081.03;4931799;29;20521;-68
2021/04/11 07:54:06;;;;;;;3.75;2.92;;;;;;;3.81;77.80;99068.78;4932484;29;20563;-67
2021/04/11 07:56:57;;;;;;;3.50;2.78;;;;;;;3.91;78.02;99071.94;4931390;29;20119;-67
2021/04/11 07:59:23;;;;;;;4.53;3.75;;;;;;;3.97;77.54;99084.78;4932103;29;20841;-67
2021/04/11 08:02:02;;;;;;;5.00;3.72;;;;;;;3.95;77.82;99085.75;4931789;29;20047;-67
2021/04/11 08:04:45;;;;;;;4.10;3.13;;;;;;;3.93;78.17;99085.78;4932363;29;20119;-68
2021/04/11 08:07:17;;;;;;;5.20;4.10;;;;;;;3.86;77.29;99094.69;4931615;29;20039;-68
2021/04/11 08:09:49;;;;;;;4.57;3.40;;;;;;;3.80;77.71;99113.16;4932609;29;20059;-68
2021/04/11 08:12:36;;;;;;;4.22;3.30;;;;;;;3.77;78.61;99118.50;4932450;29;20512;-68
2021/04/11 08:15:32;;;;;;;4.68;3.70;;;;;;;3.79;78.14;99116.66;4932667;29;20523;-67
2021/04/11 08:18:15;;;;;;;6.63;3.28;;;;;;;3.77;77.73;99118.50;4931564;29;20392;-68
2021/04/11 08:21:01;;;;;;;4.50;3.75;;;;;;;3.77;77.78;99123.69;4917154;29;20045;-67
2021/04/11 08:23:33;;;;;;;;;;;;;;;3.63;78.32;99124.97;4932177;29;20466;-68
2021/04/11 08:26:30;;;;;;;7.63;4.20;;;;;;;3.65;77.94;99128.41;4932082;29;19918;-68
2021/04/11 08:28:55;;;;;;;6.53;4.60;;;;;;;3.72;77.91;99133.44;4907327;29;20044;-69
2021/04/11 08:31:39;;;;;;;6.07;4.20;;;;;;;3.69;77.12;99128.28;4932168;29;20131;-68
2021/04/11 08:34:30;;;;;;;6.28;4.60;;;;;;;3.61;76.79;99126.78;4931928;29;20032;-68
2021/04/11 08:37:04;;;;;;;7.35;4.57;;;;;;;3.63;77.73;99129.34;4931336;29;20483;-68
2021/04/11 08:39:45;;;;;;;7.15;4.40;;;;;;;3.70;77.90;99124.78;4932141;29;20050;-68
2021/04/11 08:42:31;;;;;;;9.25;5.07;;;;;;;3.70;77.51;99140.44;4931875;29;20070;-69
2021/04/11 08:45:17;;;;;;;5.25;3.88;;;;;;;3.71;77.67;99135.16;4932036;29;20043;-69
2021/04/11 08:48:13;;;;;;;4.72;3.58;;;;;;;3.68;78.00;99137.03;4934150;29;20119;-69
2021/04/11 08:51:03;;;;;;;7.43;5.50;;;;;;;3.68;78.43;99137.88;4931810;29;20032;-69
2021/04/11 08:53:37;;;;;;;7.05;5.15;;;;;;;3.71;77.84;99139.53;4931462;29;20038;-69
2021/04/11 08:56:22;;;;;;;6.32;3.42;;;;;;;3.69;78.91;99150.00;4931609;29;20076;-69
2021/04/11 08:58:59;;;;;;;6.05;4.25;;;;;;;3.76;78.27;99145.44;4931876;29;20519;-68
2021/04/11 09:01:28;;;;;;;5.88;4.03;;;;;;;3.72;77.44;99154.28;4932670;29;20053;-68
2021/04/11 09:04:03;;;;;;;6.13;4.47;;;;;;;3.80;77.27;99150.50;4934837;29;20047;-69
2021/04/11 09:07:11;;;;;;;5.95;4.50;;;;;;;3.93;78.23;99145.75;4934986;29;20036;-68
2021/04/11 09:10:14;;;;;;;5.15;3.70;;;;;;;4.11;77.49;99165.19;4918677;29;20071;-67
2021/04/11 09:12:59;;;;;;;4.68;3.67;;;;;;;4.15;77.82;99165.91;4936562;29;20036;-68
2021/04/11 09:15:39;;;;;;;3.90;3.33;;;;;;;4.14;78.49;99172.06;4938488;29;20044;-69
2021/04/11 09:18:22;;;;;;;5.35;4.40;;;;;;;4.23;78.07;99170.00;4937930;29;20031;-69
2021/04/11 09:21:06;;;;;;;4.45;3.47;;;;;;;4.28;77.86;99168.09;4935924;29;20126;-68
2021/04/11 09:23:53;;;;;;;3.83;2.90;;;;;;;4.33;77.49;99172.28;4945160;28;20042;-68
2021/04/11 09:26:39;;;;;;;5.93;3.25;;;;;;;4.38;78.19;99183.41;4953983;28;20035;-69
2021/04/11 09:29:10;;;;;;;4.70;3.30;;;;;;;4.41;77.53;99175.50;4954466;28;20549;-68
2021/04/11 09:31:58;;;;;;;6.85;3.83;;;;;;;4.42;77.75;99188.47;4953855;28;20035;-67
2021/04/11 09:34:54;;;;;;;5.85;3.28;;;;;;;4.42;77.36;99201.53;4939247;28;20043;-68
2021/04/11 09:38:05;;;;;;;3.08;2.58;;;;;;;4.47;77.67;99191.78;4950159;28;20035;-69
2021/04/11 09:40:50;;;;;;;3.53;2.70;;;;;;;4.47;77.38;99201.38;4953153;28;20037;-69
2021/04/11 09:43:42;;;;;;;3.67;2.85;;;;;;;4.42;77.19;99201.53;4953513;28;20122;-68
2021/04/11 09:46:32;;;;;;;3.95;3.00;;;;;;;4.36;77.47;99204.34;4953193;28;20094;-68
2021/04/11 09:49:16;;;;;;;5.10;2.47;;;;;;;4.37;77.42;99208.66;4952813;28;20064;-68
2021/04/11 09:52:00;;;;;;;5.38;4.00;;;;;;;4.37;78.13;99205.19;4953053;28;20123;-68
2021/04/11 09:54:45;;;;;;;5.18;3.13;;;;;;;4.32;78.97;99214.94;4953380;28;20118;-70
2021/04/11 09:57:30;;;;;;;6.68;3.25;;;;;;;4.37;78.26;99216.47;4952806;28;20054;-68
2021/04/11 10:00:04;;;;;;;5.00;3.03;;;;;;;4.39;79.25;99224.28;4936378;29;20035;-68
2021/04/11 10:02:47;;;;;;;3.92;2.90;;;;;;;4.29;77.54;99234.16;4953380;28;20035;-69
2021/04/11 10:05:48;;;;;;;3.40;2.70;;;;;;;4.24;78.76;99236.91;4953393;28;20097;-69
2021/04/11 10:08:48;;;;;;;3.20;2.53;;;;;;;4.05;78.09;99239.25;4952963;28;20442;-68
2021/04/11 10:11:36;;;;;;;2.65;2.35;;;;;;;3.91;78.72;99241.44;4922638;28;20497;-68
2021/04/11 10:14:04;;;;;;;3.13;2.38;;;;;;;3.97;78.55;99237.78;4953120;28;20130;-67
2021/04/11 10:16:41;;;;;;;2.90;2.30;;;;;;;4.02;77.74;99238.50;4952538;28;20446;-68
2021/04/11 10:19:24;;;;;;;3.90;2.95;;;;;;;3.99;77.95;99246.44;4953373;28;20094;-68
2021/04/11 10:22:25;;;;;;;4.00;2.70;;;;;;;3.94;77.45;99246.56;4952833;28;20043;-71
2021/04/11 10:25:20;;;;;;;3.35;2.53;;;;;;;3.96;78.31;99251.72;4947445;28;20043;-70
2021/04/11 10:28:43;;;;;;;3.40;2.53;;;;;;;3.98;77.34;99242.94;4953151;28;20395;-69
2021/04/11 10:31:24;;;;;;;4.85;3.00;;;;;;;4.01;77.65;99258.53;4912522;29;20563;-69
2021/04/11 10:34:19;;;;;;;3.25;2.30;;;;;;;4.05;77.86;99259.25;4912337;29;20040;-68
2021/04/11 10:37:00;;;;;;;3.42;2.47;;;;;;;3.95;77.22;99252.63;4928198;28;20372;-69
2021/04/11 10:40:00;;;;;;;5.25;2.85;;;;;;;4.01;76.57;99261.13;4952478;28;20446;-69
2021/04/11 10:42:43;;;;;;;4.38;3.20;;;;;;;4.01;78.02;99261.13;4949868;28;20043;-68
2021/04/11 10:45:33;;;;;;;4.60;3.60;;;;;;;4.04;77.04;99273.22;4952471;28;20089;-70
2021/04/11 10:48:04;;;;;;;7.25;4.57;;;;;;;3.92;77.64;99271.00;4952255;28;20042;-69
2021/04/11 10:50:44;;;;;;;4.00;3.17;;;;;;;3.84;76.84;99279.03;4952516;28;20061;-69
2021/04/11 10:53:37;;;;;;;4.78;4.10;;;;;;;3.82;77.77;99292.13;4935772;28;20039;-69
2021/04/11 10:56:28;;;;;;;3.97;2.97;;;;;;;3.86;77.87;99303.28;4951977;28;20522;-68
2021/04/11 10:59:32;;;;;;;3.38;2.78;;;;;;;3.95;78.26;99300.41;4958157;28;20046;-68
2021/04/11 11:02:21;;;;;;;3.97;2.80;;;;;;;4.07;77.64;99304.41;4937933;29;20039;-70
2021/04/11 11:04:59;;;;;;;5.53;3.17;;;;;;;4.14;76.93;99305.09;4952823;28;20134;-69
2021/04/11 11:07:43;;;;;;;4.15;3.38;;;;;;;4.20;76.99;99302.28;4952015;28;20057;-69
2021/04/11 11:10:08;;;;;;;3.95;3.03;;;;;;;4.26;75.93;99304.72;4952567;28;20031;-68
2021/04/11 11:12:50;;;;;;;5.43;3.92;;;;;;;4.33;75.57;99313.19;4952682;28;20458;-68
2021/04/11 11:15:37;;;;;;;4.97;3.33;;;;;;;4.33;75.07;99316.63;4934681;28;20045;-68
2021/04/11 11:18:24;;;;;;;4.07;3.03;;;;;;;4.35;75.27;99319.22;4955571;28;20039;-69
2021/04/11 11:21:34;;;;;;;4.18;3.33;;;;;;;4.36;75.08;99326.16;4953777;28;20053;-70
2021/04/11 11:24:22;;;;;;;6.35;5.57;;;;;;;4.31;75.31;99331.50;4942187;28;20114;-68
2021/04/11 11:27:26;;;;;;;5.18;4.30;;;;;;;4.43;75.53;99332.84;4951728;28;20573;-68
2021/04/11 11:30:33;;;;;;;5.50;4.78;;;;;;;4.50;76.56;99327.44;4939243;28;20039;-68
2021/04/11 11:33:32;;;;;;;6.03;4.18;;;;;;;4.51;75.25;99321.28;4950917;28;20118;-69
2021/04/11 11:36:04;;;;;;;5.88;4.53;;;;;;;4.48;76.79;99326.63;4951888;28;20042;-69
2021/04/11 11:38:44;;;;;;;7.35;6.65;;;;;;;4.45;75.10;99321.47;4952005;28;20403;-69
2021/04/11 11:41:22;;;;;;;6.28;5.53;;;;;;;4.44;75.73;99334.59;4952163;28;20047;-69
2021/04/11 11:44:11;;;;;;;6.78;6.07;;;;;;;4.41;76.40;99330.31;4952138;28;20126;-68
2021/04/11 11:46:40;;;;;;;6.47;5.15;;;;;;;4.52;77.31;99333.44;4951385;28;20039;-68
2021/04/11 11:49:39;;;;;;;6.43;5.35;;;;;;;4.61;77.25;99328.84;4953882;28;20038;-68
2021/04/11 11:52:18;;;;;;;4.75;3.90;;;;;;;4.65;76.76;99322.59;4943861;28;20050;-69
2021/04/11 11:54:46;;;;;;;4.57;3.85;;;;;;;4.88;76.30;99327.06;4958047;28;20050;-69
2021/04/11 11:57:39;;;;;;;5.78;3.70;;;;;;;4.94;74.20;99332.06;4952400;28;20039;-68
2021/04/11 12:00:13;;;;;;;4.20;3.33;;;;;;;4.96;74.75;99332.88;4951367;28;20035;-69
2021/04/11 12:03:03;;;;;;;5.45;3.60;;;;;;;5.00;73.33;99339.72;4951877;28;20049;-69
2021/04/11 12:05:38;;;;;;;5.15;3.88;;;;;;;4.87;74.41;99334.06;4951932;28;20067;-68
2021/04/11 12:08:34;;;;;;;6.47;3.78;;;;;;;4.76;73.16;99336.16;4951766;28;20062;-67
2021/04/11 12:11:04;;;;;;;5.25;3.20;;;;;;;4.72;74.58;99347.59;4951621;28;20151;-69
2021/04/11 12:13:41;;;;;;;4.78;3.33;;;;;;;4.77;74.94;99348.31;4951548;28;20082;-69
2021/04/11 12:16:21;;;;;;;5.10;3.67;;;;;;;4.86;73.84;99358.47;4950696;28;20046;-68
2021/04/11 12:18:52;;;;;;;5.28;4.22;;;;;;;4.78;73.37;99354.41;4951600;28;20046;-69
2021/04/11 12:21:47;;;;;;;4.30;3.42;;;;;;;4.79;73.54;99361.31;4933956;28;20031;-68
2021/04/11 12:24:22;;;;;;;5.03;3.65;;;;;;;4.83;71.96;99360.31;4949434;28;20514;-69
2021/04/11 12:26:53;;;;;;;8.43;4.28;;;;;;;4.76;73.86;99371.88;4950847;28;20545;-68
2021/04/11 12:29:22;;;;;;;7.45;4.28;;;;;;;4.77;73.67;99369.19;4951263;28;20043;-69
2021/04/11 12:32:16;;;;;;;8.43;5.38;;;;;;;4.88;73.81;99361.03;4950520;28;20039;-71
2021/04/11 12:35:13;;;;;;;5.57;4.50;;;;;;;5.03;74.55;99370.13;4950882;28;20046;-69